Black Springs, Nevada
Current Conditions -  °F | °C
As of 4:15 AM on Friday 28 Nov 2014 (Local Time) from KRTS Reporting Station
Clear Clear  
Wind Chill: 44°   Ceiling: Unl
Heat Index: 48°   Visibility: 10mi
Dew Point: -11°   Wind: 9mph
Humidity: 8%   Direction: 270°W
Pressure: 30.04"   Gusts: NA
Location:  39.7378°N, 119.889°W
Report Text: KRTS 281215Z AUTO 27008KT 10SM CLR 09/M24 A3004 RMK AO2
Loading
Personal Weather Stations






























Interactive Weather Map New forecast layout! Learn more

10-Day Weather Forecast

Advertisements
Track Severe Weather on mobile